Time;durP1;ratioP1;P1;durP2;ratioP2;P2;SDS_P1;SDS_P2;PMS_P1;PMS_P2;Temp;Humidity;BMP_temperature;BMP_pressure;BME280_temperature;BME280_humidity;BME280_pressure;Samples;Min_cycle;Max_cycle;Signal;HPM_P1;HPM_P2
2021/08/26 00:06:57;;;;;;;5.28;4.18;;;16.60;99.90;;;;;;5097208;28;20082;-84
2021/08/26 00:09:23;;;;;;;5.07;4.57;;;16.60;99.90;;;;;;5096701;28;20128;-83
2021/08/26 00:11:49;;;;;;;4.43;3.95;;;16.60;99.90;;;;;;5098789;28;20123;-84
2021/08/26 00:14:15;;;;;;;6.15;4.38;;;16.60;99.90;;;;;;5086456;28;20474;-83
2021/08/26 00:16:42;;;;;;;6.35;4.70;;;16.50;99.90;;;;;;5093887;28;20040;-85
2021/08/26 00:19:14;;;;;;;5.57;4.50;;;16.50;99.90;;;;;;5109207;28;20031;-84
2021/08/26 00:21:40;;;;;;;6.43;4.93;;;16.50;99.90;;;;;;5102696;28;20119;-84
2021/08/26 00:24:06;;;;;;;7.47;5.68;;;16.50;99.90;;;;;;5095755;28;20035;-83
2021/08/26 00:26:33;;;;;;;8.70;5.97;;;16.50;99.90;;;;;;5106511;28;20040;-84
2021/08/26 00:28:59;;;;;;;7.38;5.88;;;16.50;99.90;;;;;;5109833;28;20140;-83
2021/08/26 00:31:25;;;;;;;7.50;5.63;;;16.50;99.90;;;;;;5106235;28;20627;-84
2021/08/26 00:33:51;;;;;;;8.45;6.03;;;16.50;99.90;;;;;;5105540;28;20051;-84
2021/08/26 00:36:17;;;;;;;6.75;6.07;;;16.40;99.90;;;;;;5095830;28;20024;-85
2021/08/26 00:38:45;;;;;;;7.22;5.63;;;16.40;99.90;;;;;;5087191;28;20408;-85
2021/08/26 00:41:11;;;;;;;8.77;6.32;;;16.40;99.90;;;;;;5107119;28;20123;-85
2021/08/26 00:43:37;;;;;;;8.15;6.15;;;16.40;99.90;;;;;;5097256;28;20138;-85
2021/08/26 00:46:03;;;;;;;8.05;6.10;;;16.40;99.90;;;;;;5090583;28;20140;-85
2021/08/26 00:48:29;;;;;;;7.43;6.43;;;16.40;99.90;;;;;;5098719;28;20035;-85
2021/08/26 00:50:56;;;;;;;9.50;6.85;;;16.40;99.90;;;;;;5098129;28;20069;-87
2021/08/26 00:53:23;;;;;;;7.90;6.65;;;16.40;99.90;;;;;;5109243;28;20090;-85
2021/08/26 00:55:49;;;;;;;7.00;6.30;;;16.40;99.90;;;;;;5101896;28;20467;-85
2021/08/26 00:58:15;;;;;;;7.35;6.57;;;16.40;99.90;;;;;;5095976;28;20035;-85
2021/08/26 01:00:49;;;;;;;8.20;6.55;;;16.40;99.90;;;;;;5106810;28;20043;-86
2021/08/26 01:03:16;;;;;;;7.78;6.97;;;16.50;99.90;;;;;;5104664;28;20040;-85
2021/08/26 01:05:48;;;;;;;9.55;6.78;;;16.50;99.90;;;;;;5114568;28;20094;-85
2021/08/26 01:08:19;;;;;;;8.13;6.22;;;16.40;99.90;;;;;;5090114;28;20147;-84
2021/08/26 01:10:50;;;;;;;8.80;6.90;;;16.40;99.90;;;;;;5097228;28;20043;-85
2021/08/26 01:13:16;;;;;;;8.68;7.30;;;16.40;99.90;;;;;;5083489;28;20028;-85
2021/08/26 01:16:08;;;;;;;7.60;6.53;;;16.40;99.90;;;;;;5104135;28;20282;-85
2021/08/26 01:18:36;;;;;;;7.30;6.30;;;16.40;99.90;;;;;;5112287;28;20429;-86
2021/08/26 01:21:03;;;;;;;7.78;6.68;;;16.30;99.90;;;;;;5093880;28;20052;-84
2021/08/26 01:23:35;;;;;;;6.95;6.25;;;16.30;99.90;;;;;;5102084;28;20771;-85
2021/08/26 01:26:04;;;;;;;7.57;6.35;;;16.30;99.90;;;;;;5099377;28;20054;-85
2021/08/26 01:28:34;;;;;;;9.10;6.40;;;16.30;99.90;;;;;;5095809;28;20040;-85
2021/08/26 01:31:01;;;;;;;6.47;5.65;;;16.30;99.90;;;;;;5107600;28;20127;-85
2021/08/26 01:33:26;;;;;;;6.10;5.50;;;16.30;99.90;;;;;;5096055;28;20459;-85
2021/08/26 01:35:52;;;;;;;6.32;5.55;;;16.30;99.90;;;;;;5110289;28;20047;-85
2021/08/26 01:38:25;;;;;;;6.07;4.95;;;16.40;99.90;;;;;;5105668;27;20028;-85
2021/08/26 01:40:50;;;;;;;7.80;4.78;;;16.40;99.90;;;;;;5092164;28;20131;-85
2021/08/26 01:43:20;;;;;;;6.25;4.55;;;16.30;99.90;;;;;;5077715;28;20384;-85
2021/08/26 01:45:47;;;;;;;4.75;4.10;;;16.40;99.90;;;;;;5083966;28;20040;-85
2021/08/26 01:48:17;;;;;;;7.63;5.35;;;16.30;99.90;;;;;;5100362;28;20123;-84
2021/08/26 01:50:44;;;;;;;5.53;4.75;;;16.30;99.90;;;;;;5099469;28;20063;-85
2021/08/26 01:53:10;;;;;;;6.03;4.72;;;16.30;99.90;;;;;;5103062;28;20465;-85
2021/08/26 01:55:36;;;;;;;5.65;4.75;;;16.30;99.90;;;;;;5084623;28;20032;-85
2021/08/26 01:58:02;;;;;;;6.82;5.05;;;16.40;99.90;;;;;;5089112;28;20051;-86
2021/08/26 02:00:27;;;;;;;6.88;5.30;;;16.40;99.90;;;;;;5097749;28;20074;-83
2021/08/26 02:02:53;;;;;;;5.18;4.70;;;16.40;99.90;;;;;;5102100;28;20047;-84
2021/08/26 02:05:18;;;;;;;6.32;4.80;;;16.40;99.90;;;;;;5121160;28;20067;-84
2021/08/26 02:07:45;;;;;;;6.60;5.22;;;16.40;99.90;;;;;;5126665;28;20039;-84
2021/08/26 02:10:11;;;;;;;6.25;5.13;;;16.40;99.90;;;;;;5119912;28;20039;-85
2021/08/26 02:12:37;;;;;;;6.40;4.80;;;16.40;99.90;;;;;;5122040;28;20035;-83
2021/08/26 02:15:03;;;;;;;5.93;3.97;;;16.40;99.90;;;;;;5103710;28;20062;-86
2021/08/26 02:17:28;;;;;;;7.43;4.47;;;16.40;99.90;;;;;;5116096;28;20049;-85
2021/08/26 02:19:54;;;;;;;4.63;3.85;;;16.40;99.90;;;;;;5106672;28;20148;-85
2021/08/26 02:22:19;;;;;;;4.13;2.55;;;16.40;99.90;;;;;;5098051;28;20028;-84
2021/08/26 02:24:45;;;;;;;3.15;2.35;;;16.40;99.90;;;;;;5101156;28;20047;-85
2021/08/26 02:27:10;;;;;;;3.80;1.95;;;16.30;99.90;;;;;;5106481;28;20090;-84
2021/08/26 02:29:36;;;;;;;3.03;2.35;;;16.20;99.90;;;;;;5113097;28;20031;-85
2021/08/26 02:32:02;;;;;;;4.10;1.40;;;16.20;99.90;;;;;;5093774;28;20298;-85
2021/08/26 02:34:27;;;;;;;2.20;1.63;;;16.10;99.90;;;;;;5098623;28;20385;-84
2021/08/26 02:36:53;;;;;;;2.55;1.80;;;16.10;99.90;;;;;;5095040;28;20049;-85
2021/08/26 02:39:18;;;;;;;5.70;1.60;;;16.00;99.90;;;;;;5085460;28;20040;-83
2021/08/26 02:41:44;;;;;;;5.50;1.73;;;16.00;99.90;;;;;;5095098;28;20040;-85
2021/08/26 02:44:10;;;;;;;2.47;1.77;;;16.00;99.90;;;;;;5096182;28;20032;-85
2021/08/26 02:46:36;;;;;;;4.82;2.00;;;15.90;99.90;;;;;;5097837;28;20118;-85
2021/08/26 02:49:01;;;;;;;3.95;1.58;;;15.90;99.90;;;;;;5099410;28;20158;-85
2021/08/26 02:51:27;;;;;;;2.58;1.55;;;15.80;99.90;;;;;;5103192;28;20075;-85
2021/08/26 02:53:52;;;;;;;3.17;1.55;;;15.80;99.90;;;;;;5105319;28;20095;-84
2021/08/26 02:56:18;;;;;;;3.20;1.55;;;15.90;99.90;;;;;;5088164;28;20035;-84
2021/08/26 02:58:43;;;;;;;4.40;1.80;;;15.90;99.90;;;;;;5100076;28;20032;-85
2021/08/26 03:01:09;;;;;;;5.07;2.38;;;15.90;99.90;;;;;;5102249;28;20120;-86
2021/08/26 03:03:34;;;;;;;4.40;1.45;;;15.80;99.90;;;;;;5088393;28;20044;-85
2021/08/26 03:06:00;;;;;;;4.60;2.25;;;15.80;99.90;;;;;;5108988;28;20122;-86
2021/08/26 03:08:25;;;;;;;3.05;2.00;;;15.90;99.90;;;;;;5097982;28;20036;-84
2021/08/26 03:10:51;;;;;;;3.15;2.08;;;15.80;99.90;;;;;;5086578;28;20039;-84
2021/08/26 03:13:16;;;;;;;2.88;1.42;;;15.90;99.90;;;;;;5095620;28;20040;-83
2021/08/26 03:15:42;;;;;;;2.58;1.80;;;15.90;99.90;;;;;;5095568;28;20090;-83
2021/08/26 03:18:08;;;;;;;4.75;1.83;;;15.90;99.90;;;;;;5091784;28;20037;-84
2021/08/26 03:20:33;;;;;;;5.30;1.60;;;15.80;99.90;;;;;;5097935;28;20194;-85
2021/08/26 03:22:59;;;;;;;3.22;1.67;;;15.80;99.90;;;;;;5116124;28;20054;-85
2021/08/26 03:25:25;;;;;;;4.13;2.88;;;15.80;99.90;;;;;;5099010;28;20040;-84
2021/08/26 03:27:51;;;;;;;4.45;1.70;;;15.70;99.90;;;;;;5094836;28;20036;-84
2021/08/26 03:30:17;;;;;;;4.03;1.85;;;15.70;99.90;;;;;;5104463;28;20039;-84
2021/08/26 03:32:42;;;;;;;2.88;1.85;;;15.70;99.90;;;;;;5107522;28;20116;-84
2021/08/26 03:35:08;;;;;;;3.42;1.50;;;15.70;99.90;;;;;;5099013;28;20082;-84
2021/08/26 03:37:34;;;;;;;3.63;1.65;;;15.70;99.90;;;;;;5093097;28;20047;-85
2021/08/26 03:39:59;;;;;;;7.47;2.35;;;15.70;99.90;;;;;;5096108;28;20065;-84
2021/08/26 03:42:25;;;;;;;6.20;2.13;;;15.60;99.90;;;;;;5111610;28;20039;-84
2021/08/26 03:44:50;;;;;;;5.30;2.00;;;15.60;99.90;;;;;;5101777;28;20071;-84
2021/08/26 03:47:16;;;;;;;9.07;2.17;;;15.60;99.90;;;;;;5108424;28;20125;-83
2021/08/26 03:49:41;;;;;;;4.65;1.58;;;15.50;99.90;;;;;;5096173;28;20036;-84
2021/08/26 03:52:07;;;;;;;7.05;1.73;;;15.50;99.90;;;;;;5101873;28;20469;-85
2021/08/26 03:54:32;;;;;;;4.10;1.58;;;15.50;99.90;;;;;;5094817;28;20036;-85
2021/08/26 03:56:58;;;;;;;4.57;1.63;;;15.50;99.90;;;;;;5080501;28;20040;-86
2021/08/26 03:59:23;;;;;;;6.40;1.88;;;15.50;99.90;;;;;;5087881;28;20061;-85
2021/08/26 04:01:49;;;;;;;6.25;2.15;;;15.40;99.90;;;;;;5092380;28;20044;-84
2021/08/26 04:04:15;;;;;;;6.22;2.00;;;15.40;99.90;;;;;;5087857;28;20155;-85
2021/08/26 04:06:40;;;;;;;3.95;2.10;;;15.30;99.90;;;;;;5090698;28;20090;-84
2021/08/26 04:09:06;;;;;;;5.35;1.95;;;15.30;99.90;;;;;;5100030;28;20095;-85
2021/08/26 04:11:31;;;;;;;5.10;1.83;;;15.30;99.90;;;;;;5088209;28;20044;-84
2021/08/26 04:13:57;;;;;;;6.70;1.92;;;15.30;99.90;;;;;;5087701;28;20624;-83
2021/08/26 04:16:22;;;;;;;4.60;2.17;;;15.30;99.90;;;;;;5092568;28;20040;-84
2021/08/26 04:18:48;;;;;;;9.05;2.35;;;15.30;99.90;;;;;;5094129;28;20067;-85
2021/08/26 04:21:13;;;;;;;6.20;2.28;;;15.30;99.90;;;;;;5085241;28;20519;-85
2021/08/26 04:23:39;;;;;;;8.00;2.10;;;15.30;99.90;;;;;;5094764;28;20420;-85
2021/08/26 04:26:04;;;;;;;7.47;2.17;;;15.30;99.90;;;;;;5092876;28;20039;-85
2021/08/26 04:28:30;;;;;;;6.00;2.38;;;15.30;99.90;;;;;;5093565;28;20093;-86
2021/08/26 04:30:55;;;;;;;10.93;3.28;;;15.40;99.90;;;;;;5087648;28;20043;-86
2021/08/26 04:33:21;;;;;;;11.15;2.20;;;15.30;99.90;;;;;;5087186;28;20383;-85
2021/08/26 04:35:46;;;;;;;8.48;2.28;;;15.40;99.90;;;;;;5091025;28;20123;-84
2021/08/26 04:38:11;;;;;;;5.60;2.53;;;15.40;99.90;;;;;;5096280;28;20071;-85
2021/08/26 04:40:37;;;;;;;7.30;2.20;;;15.50;99.90;;;;;;5093400;28;20036;-85
2021/08/26 04:43:05;;;;;;;10.18;2.72;;;15.50;99.90;;;;;;5100013;28;20040;-85
2021/08/26 04:45:31;;;;;;;8.63;2.85;;;15.50;99.90;;;;;;5112685;28;20040;-85
2021/08/26 04:47:56;;;;;;;9.07;3.72;;;15.50;99.90;;;;;;5104472;28;20047;-85
2021/08/26 04:50:22;;;;;;;5.00;2.38;;;15.50;99.90;;;;;;5111253;28;20035;-85
2021/08/26 04:52:51;;;;;;;6.32;2.22;;;15.50;99.90;;;;;;5117815;28;20126;-86
2021/08/26 04:55:17;;;;;;;10.77;2.40;;;15.50;99.90;;;;;;5111917;28;20114;-85
2021/08/26 04:57:42;;;;;;;5.25;2.03;;;15.50;99.90;;;;;;5115824;28;20040;-85
2021/08/26 05:00:08;;;;;;;7.88;3.05;;;15.50;99.90;;;;;;5115298;28;20516;-85
2021/08/26 05:02:34;;;;;;;12.55;2.35;;;15.50;99.90;;;;;;5104479;28;20039;-85
2021/08/26 05:04:59;;;;;;;6.60;2.20;;;15.50;99.90;;;;;;5112334;28;20051;-86
2021/08/26 05:07:25;;;;;;;12.55;2.63;;;15.50;99.90;;;;;;5102404;28;20038;-87
2021/08/26 05:09:50;;;;;;;6.97;2.17;;;15.60;99.90;;;;;;5104825;28;20143;-86
2021/08/26 05:12:16;;;;;;;11.23;2.65;;;15.60;99.90;;;;;;5106607;28;20160;-85
2021/08/26 05:14:41;;;;;;;6.53;2.05;;;15.60;99.90;;;;;;5099340;28;20036;-85
2021/08/26 05:17:07;;;;;;;7.05;2.70;;;15.60;99.90;;;;;;5097225;28;20091;-86
2021/08/26 05:19:32;;;;;;;6.22;2.17;;;15.60;99.90;;;;;;5098014;28;20036;-86
2021/08/26 05:21:58;;;;;;;11.15;3.20;;;15.60;99.90;;;;;;5096991;28;20043;-85
2021/08/26 05:24:24;;;;;;;4.43;2.03;;;15.60;99.90;;;;;;5101860;28;20332;-85
2021/08/26 05:26:50;;;;;;;11.75;3.78;;;15.60;99.90;;;;;;5105896;27;20044;-85
2021/08/26 05:29:16;;;;;;;12.80;3.28;;;15.60;99.90;;;;;;5077076;28;20122;-85
2021/08/26 05:31:41;;;;;;;9.20;2.42;;;15.60;99.90;;;;;;5085547;28;20421;-86
2021/08/26 05:34:07;;;;;;;9.65;2.88;;;15.60;99.90;;;;;;5112956;28;20088;-84
2021/08/26 05:36:32;;;;;;;14.15;2.75;;;15.60;99.90;;;;;;5105973;28;20107;-84
2021/08/26 05:38:58;;;;;;;12.15;3.58;;;15.70;99.90;;;;;;5108014;28;20059;-85
2021/08/26 05:41:23;;;;;;;10.35;3.15;;;15.70;99.90;;;;;;5096962;28;20037;-87
2021/08/26 05:43:49;;;;;;;7.05;2.95;;;15.70;99.90;;;;;;5092928;28;20041;-87
2021/08/26 05:46:14;;;;;;;15.80;3.55;;;15.70;99.90;;;;;;5090040;28;20095;-86
2021/08/26 05:48:40;;;;;;;10.05;3.42;;;15.70;99.90;;;;;;5115874;28;20463;-85
2021/08/26 05:51:05;;;;;;;11.20;3.60;;;15.70;99.90;;;;;;5100852;28;20071;-88
2021/08/26 05:53:31;;;;;;;13.07;2.92;;;15.70;99.90;;;;;;5090416;28;20126;-87
2021/08/26 05:55:57;;;;;;;12.63;3.85;;;15.80;99.90;;;;;;5091702;28;20028;-87
2021/08/26 05:58:23;;;;;;;13.65;2.95;;;15.80;99.90;;;;;;5104423;28;20032;-86
2021/08/26 06:00:49;;;;;;;10.55;2.65;;;15.80;99.90;;;;;;5100041;28;20039;-87
2021/08/26 06:03:15;;;;;;;13.27;2.92;;;15.80;99.90;;;;;;5112133;28;20058;-87
2021/08/26 06:05:41;;;;;;;11.63;3.30;;;15.80;99.90;;;;;;5122824;28;20042;-85
2021/08/26 06:08:07;;;;;;;15.70;2.83;;;15.80;99.90;;;;;;5105559;28;20131;-86
2021/08/26 06:10:32;;;;;;;13.35;3.58;;;15.80;99.90;;;;;;5109112;28;20036;-86
2021/08/26 06:12:58;;;;;;;10.02;3.20;;;15.90;99.90;;;;;;5107881;28;20028;-85
2021/08/26 06:15:23;;;;;;;11.77;4.10;;;15.90;99.90;;;;;;5106004;28;20043;-85
2021/08/26 06:17:49;;;;;;;13.38;3.22;;;15.90;99.90;;;;;;5116292;28;20028;-86
2021/08/26 06:20:16;;;;;;;15.63;3.80;;;15.90;99.90;;;;;;5113555;28;20100;-86
2021/08/26 06:22:43;;;;;;;15.25;3.97;;;15.90;99.90;;;;;;5110166;28;20040;-86
2021/08/26 06:25:10;;;;;;;12.80;2.70;;;16.00;99.90;;;;;;5102818;28;20043;-86
2021/08/26 06:27:37;;;;;;;10.07;3.63;;;15.90;99.90;;;;;;5127095;28;20042;-86
2021/08/26 06:30:05;;;;;;;9.02;2.88;;;16.00;99.90;;;;;;5121619;28;20088;-86
2021/08/26 06:32:31;;;;;;;7.07;3.33;;;16.00;99.90;;;;;;5114491;28;20040;-84
2021/08/26 06:34:58;;;;;;;11.30;3.63;;;16.00;99.90;;;;;;5101872;28;20043;-86
2021/08/26 06:37:24;;;;;;;13.38;3.25;;;16.00;99.90;;;;;;5117379;28;20122;-86
2021/08/26 06:39:49;;;;;;;14.18;3.50;;;16.00;99.90;;;;;;5111025;28;20097;-86
2021/08/26 06:42:15;;;;;;;14.88;3.35;;;16.00;99.90;;;;;;5105096;28;20391;-86
2021/08/26 06:44:40;;;;;;;11.90;2.63;;;16.10;99.90;;;;;;5099436;28;20330;-86
2021/08/26 06:47:06;;;;;;;13.43;3.33;;;16.10;99.90;;;;;;5099142;28;20066;-86
2021/08/26 06:49:32;;;;;;;10.93;3.25;;;16.20;99.90;;;;;;5116516;28;20309;-86
2021/08/26 06:51:57;;;;;;;9.40;2.88;;;16.20;99.70;;;;;;5101696;28;20059;-87
2021/08/26 06:54:23;;;;;;;8.82;3.00;;;16.20;99.80;;;;;;5104711;28;20043;-86
2021/08/26 06:56:48;;;;;;;11.57;2.90;;;16.30;99.50;;;;;;5097659;28;20039;-86
2021/08/26 06:59:14;;;;;;;11.18;3.55;;;16.30;99.20;;;;;;5097714;28;20036;-86
2021/08/26 07:01:39;;;;;;;6.60;2.65;;;16.30;98.90;;;;;;5105774;28;20068;-86
2021/08/26 07:04:05;;;;;;;10.43;2.70;;;16.30;98.80;;;;;;5106752;28;20585;-86
2021/08/26 07:06:30;;;;;;;9.68;2.80;;;16.40;98.60;;;;;;5098644;28;20035;-85
2021/08/26 07:08:56;;;;;;;9.18;3.08;;;16.50;98.50;;;;;;5090104;28;20073;-86
2021/08/26 07:11:21;;;;;;;10.73;2.67;;;16.50;98.90;;;;;;5109533;28;20040;-86
2021/08/26 07:13:47;;;;;;;12.00;3.30;;;16.60;98.50;;;;;;5114702;28;20063;-87
2021/08/26 07:16:12;;;;;;;11.43;3.25;;;16.70;98.30;;;;;;5116748;28;20043;-86
2021/08/26 07:18:38;;;;;;;11.45;3.05;;;16.70;98.10;;;;;;5113951;28;20035;-85
2021/08/26 07:21:03;;;;;;;6.93;2.58;;;16.70;98.10;;;;;;5111930;28;20051;-86
2021/08/26 07:23:29;;;;;;;8.48;2.72;;;16.70;98.20;;;;;;5112608;28;20035;-87
2021/08/26 07:25:54;;;;;;;6.78;2.53;;;16.80;98.20;;;;;;5093825;28;20048;-85
2021/08/26 07:28:20;;;;;;;8.43;2.35;;;16.80;97.30;;;;;;5107772;28;20035;-86
2021/08/26 07:30:46;;;;;;;11.35;3.00;;;16.90;97.40;;;;;;5120219;28;20043;-88
2021/08/26 07:33:11;;;;;;;11.07;3.20;;;16.90;97.10;;;;;;5111372;28;20039;-87
2021/08/26 07:35:37;;;;;;;12.30;2.92;;;16.90;97.10;;;;;;5102833;28;20413;-88
2021/08/26 07:38:02;;;;;;;7.80;2.80;;;16.90;96.90;;;;;;5104441;28;20032;-88
2021/08/26 07:40:28;;;;;;;10.50;2.72;;;17.00;96.20;;;;;;5102123;28;20134;-89
2021/08/26 07:42:53;;;;;;;6.40;2.33;;;17.00;96.20;;;;;;5114121;28;20445;-86
2021/08/26 07:45:19;;;;;;;4.45;1.85;;;17.10;96.10;;;;;;5102207;28;20035;-87
2021/08/26 07:47:44;;;;;;;9.45;2.22;;;17.10;96.50;;;;;;5120357;28;20039;-87
2021/08/26 07:50:12;;;;;;;5.80;3.22;;;17.20;96.10;;;;;;5125095;28;20054;-88
2021/08/26 07:52:37;;;;;;;7.28;1.92;;;17.30;96.10;;;;;;5111305;28;20040;-89
2021/08/26 07:55:04;;;;;;;5.40;1.98;;;17.40;95.80;;;;;;5103405;28;20460;-89
2021/08/26 07:57:30;;;;;;;10.35;3.00;;;17.40;95.10;;;;;;5118513;28;20397;-87
2021/08/26 07:59:56;;;;;;;5.90;2.08;;;17.40;94.90;;;;;;5100631;28;20074;-89
2021/08/26 08:02:22;;;;;;;8.15;2.75;;;17.40;95.00;;;;;;5106331;28;20099;-87
2021/08/26 08:04:47;;;;;;;13.32;2.70;;;17.50;95.00;;;;;;5122360;28;20035;-89
2021/08/26 08:07:13;;;;;;;5.70;1.80;;;17.60;95.10;;;;;;5112936;28;20047;-88
2021/08/26 08:09:39;;;;;;;7.63;2.55;;;17.60;95.20;;;;;;5123210;28;20053;-87
2021/08/26 08:12:05;;;;;;;6.10;1.85;;;17.60;94.40;;;;;;5118186;28;20046;-87
2021/08/26 08:14:31;;;;;;;9.07;1.92;;;17.60;94.40;;;;;;5113422;28;20039;-88
2021/08/26 08:16:57;;;;;;;7.93;1.85;;;17.70;94.70;;;;;;5124169;28;20039;-87
2021/08/26 08:19:24;;;;;;;11.07;2.03;;;17.80;94.60;;;;;;5121400;28;20031;-87
2021/08/26 08:21:50;;;;;;;6.65;2.28;;;17.80;93.80;;;;;;5126545;28;20077;-87
2021/08/26 08:24:15;;;;;;;5.53;1.80;;;17.80;93.90;;;;;;5107588;28;20048;-88
2021/08/26 08:26:41;;;;;;;6.72;1.90;;;17.90;93.70;;;;;;5098454;28;20290;-87
2021/08/26 08:29:06;;;;;;;6.38;2.15;;;17.80;93.40;;;;;;5108375;28;20036;-88
2021/08/26 08:31:32;;;;;;;6.28;2.22;;;17.80;93.90;;;;;;5123673;28;20043;-88
2021/08/26 08:33:59;;;;;;;7.50;2.53;;;17.80;94.20;;;;;;5104210;28;20036;-89
2021/08/26 08:36:25;;;;;;;5.70;1.95;;;17.80;94.10;;;;;;5120421;28;20278;-87
2021/08/26 08:38:51;;;;;;;5.32;2.00;;;17.90;94.30;;;;;;5124632;28;20039;-89
2021/08/26 08:41:18;;;;;;;10.98;2.95;;;18.00;94.10;;;;;;5108684;28;20047;-89
2021/08/26 08:43:44;;;;;;;9.13;2.30;;;18.00;93.30;;;;;;5106584;28;20072;-87
2021/08/26 08:46:10;;;;;;;11.35;2.38;;;18.10;93.30;;;;;;5106992;28;20035;-86
2021/08/26 08:48:42;;;;;;;5.72;2.00;;;18.20;93.10;;;;;;5105489;28;20067;-87
2021/08/26 08:51:08;;;;;;;5.32;1.90;;;18.20;93.20;;;;;;5105546;28;20079;-86
2021/08/26 08:53:35;;;;;;;3.50;1.65;;;18.30;93.00;;;;;;5105255;28;20035;-87
2021/08/26 08:56:03;;;;;;;8.25;1.92;;;18.30;92.80;;;;;;5101927;28;20032;-89
2021/08/26 08:58:33;;;;;;;6.95;2.80;;;18.40;93.40;;;;;;5102749;28;20329;-88
2021/08/26 09:00:59;;;;;;;7.32;1.83;;;18.40;93.50;;;;;;5106767;28;20039;-89
2021/08/26 09:03:24;;;;;;;6.60;2.42;;;18.40;93.10;;;;;;5122037;28;20043;-86
2021/08/26 09:05:56;;;;;;;7.22;1.65;;;18.30;93.00;;;;;;5106132;28;20043;-90
2021/08/26 09:08:23;;;;;;;8.75;2.13;;;18.30;93.40;;;;;;5122367;28;20039;-88
2021/08/26 09:10:54;;;;;;;5.70;2.00;;;18.30;92.60;;;;;;5123870;28;20067;-88
2021/08/26 09:13:31;;;;;;;7.50;2.15;;;18.30;93.10;;;;;;5107872;28;20040;-88
2021/08/26 09:15:57;;;;;;;6.78;2.35;;;18.30;93.10;;;;;;5107756;28;20032;-88
2021/08/26 09:18:22;;;;;;;10.25;2.10;;;18.30;93.60;;;;;;5112192;28;20058;-87
2021/08/26 09:20:56;;;;;;;6.40;2.67;;;18.40;93.40;;;;;;5109555;28;20036;-87
2021/08/26 09:23:27;;;;;;;8.40;2.45;;;18.40;93.30;;;;;;5109472;28;20069;-87
2021/08/26 09:26:13;;;;;;;8.77;2.30;;;18.50;93.50;;;;;;5114549;28;20093;-88
2021/08/26 09:28:39;;;;;;;5.63;2.30;;;18.50;93.60;;;;;;5127879;28;20031;-87
2021/08/26 09:31:17;;;;;;;9.25;2.75;;;18.50;92.60;;;;;;5108101;28;20065;-88
2021/08/26 09:34:00;;;;;;;3.78;1.92;;;18.60;92.30;;;;;;5113017;28;20031;-87
2021/08/26 09:36:30;;;;;;;4.55;2.00;;;18.60;92.10;;;;;;5117516;28;20035;-90
2021/08/26 09:39:07;;;;;;;5.32;1.30;;;18.60;92.60;;;;;;5124848;28;20027;-85
2021/08/26 09:41:40;;;;;;;4.53;1.65;;;18.60;92.20;;;;;;5119714;28;20043;-88
2021/08/26 09:44:11;;;;;;;5.13;1.92;;;18.60;92.10;;;;;;5105250;28;20055;-87
2021/08/26 09:46:37;;;;;;;5.18;1.88;;;18.80;92.10;;;;;;5114936;28;20036;-87
2021/08/26 09:49:09;;;;;;;7.47;2.20;;;18.80;91.90;;;;;;5117816;28;20059;-87
2021/08/26 09:51:35;;;;;;;5.35;1.60;;;18.90;91.60;;;;;;5103304;28;20035;-88
2021/08/26 09:54:01;;;;;;;5.25;1.80;;;19.10;90.70;;;;;;5104276;28;20043;-87
2021/08/26 09:56:38;;;;;;;5.43;1.75;;;19.20;90.70;;;;;;5122785;28;20027;-87
2021/08/26 09:59:05;;;;;;;6.13;1.80;;;19.30;91.00;;;;;;5120564;28;20056;-87
2021/08/26 10:01:32;;;;;;;3.60;1.52;;;19.40;91.50;;;;;;5120438;28;20044;-87
2021/08/26 10:03:57;;;;;;;5.63;2.15;;;19.50;91.40;;;;;;5114026;28;20032;-89
2021/08/26 10:06:24;;;;;;;15.63;2.47;;;19.50;91.60;;;;;;5116487;28;20046;-87
2021/08/26 10:08:50;;;;;;;8.55;1.75;;;19.40;92.20;;;;;;5107118;28;21538;-88
2021/08/26 10:11:18;;;;;;;9.20;2.13;;;19.50;92.50;;;;;;5100418;28;20048;-87
2021/08/26 10:13:44;;;;;;;6.85;2.58;;;19.40;92.80;;;;;;5101837;28;20036;-88
2021/08/26 10:16:10;;;;;;;5.72;1.70;;;19.40;92.40;;;;;;5102625;28;20040;-88
2021/08/26 10:18:36;;;;;;;5.60;2.17;;;19.40;91.20;;;;;;5112663;28;20420;-87
2021/08/26 10:21:03;;;;;;;4.70;1.77;;;19.40;91.50;;;;;;5091206;28;20035;-87
2021/08/26 10:23:30;;;;;;;4.85;1.50;;;19.40;92.00;;;;;;5094903;28;20052;-87
2021/08/26 10:25:58;;;;;;;6.80;2.08;;;19.40;91.70;;;;;;5097921;28;20114;-87
2021/08/26 10:28:24;;;;;;;6.50;1.95;;;19.40;91.30;;;;;;5102933;28;20078;-86
2021/08/26 10:30:50;;;;;;;6.07;1.95;;;19.40;92.10;;;;;;5101188;28;20185;-86
2021/08/26 10:33:26;;;;;;;7.35;2.08;;;19.50;92.10;;;;;;5110225;28;20084;-87
2021/08/26 10:35:55;;;;;;;5.07;1.70;;;19.60;91.20;;;;;;5107716;28;20036;-87
2021/08/26 10:38:25;;;;;;;5.68;2.13;;;19.50;91.30;;;;;;5108755;28;20047;-84
2021/08/26 10:40:50;;;;;;;4.68;1.92;;;19.40;91.60;;;;;;5097288;28;20397;-85
2021/08/26 10:43:37;;;;;;;6.22;2.08;;;19.30;91.20;;;;;;5117654;28;20046;-88
2021/08/26 10:46:05;;;;;;;5.47;1.77;;;19.30;91.20;;;;;;5105624;28;20032;-87
2021/08/26 10:48:30;;;;;;;8.48;1.75;;;19.30;91.40;;;;;;5107006;28;20035;-88
2021/08/26 10:51:16;;;;;;;4.43;1.60;;;19.30;91.50;;;;;;5101828;28;20047;-87
2021/08/26 10:53:48;;;;;;;6.65;2.22;;;19.40;91.00;;;;;;5108315;28;20031;-88
2021/08/26 10:56:26;;;;;;;3.83;1.23;;;19.40;91.60;;;;;;5108418;28;20047;-87
2021/08/26 10:58:55;;;;;;;5.25;1.50;;;19.50;90.60;;;;;;5103113;28;20432;-90
2021/08/26 11:01:32;;;;;;;3.88;1.70;;;19.70;90.30;;;;;;5115320;28;20035;-87
2021/08/26 11:04:20;;;;;;;4.85;1.15;;;19.80;91.20;;;;;;5125011;28;20032;-88
2021/08/26 11:06:47;;;;;;;5.57;1.15;;;20.00;90.00;;;;;;5117079;28;20058;-86
2021/08/26 11:09:20;;;;;;;3.67;1.15;;;19.90;89.00;;;;;;5098959;28;20047;-88
2021/08/26 11:11:50;;;;;;;5.22;1.60;;;19.90;86.10;;;;;;5109590;28;20099;-89
2021/08/26 11:14:17;;;;;;;1.88;1.10;;;19.90;86.60;;;;;;5096575;28;20032;-87
2021/08/26 11:16:45;;;;;;;2.35;0.95;;;19.90;87.20;;;;;;5102966;28;20413;-87
2021/08/26 11:19:10;;;;;;;2.80;1.25;;;19.90;86.80;;;;;;5105475;28;20536;-88
2021/08/26 11:22:00;;;;;;;1.95;0.90;;;19.90;86.10;;;;;;5103171;28;20043;-88
2021/08/26 11:24:28;;;;;;;2.75;1.15;;;19.90;86.70;;;;;;5104232;28;20067;-87
2021/08/26 11:26:56;;;;;;;4.25;1.83;;;19.90;86.50;;;;;;5098156;28;20048;-87
2021/08/26 11:29:21;;;;;;;1.85;1.17;;;20.00;87.50;;;;;;5111569;28;20035;-89
2021/08/26 11:32:02;;;;;;;3.15;1.45;;;20.00;88.70;;;;;;5092834;28;20283;-87
2021/08/26 11:34:48;;;;;;;4.40;1.60;;;20.00;89.00;;;;;;5100466;28;20060;-87
2021/08/26 11:37:19;;;;;;;3.15;1.42;;;20.10;88.00;;;;;;5097098;28;20130;-89
2021/08/26 11:39:49;;;;;;;5.30;1.90;;;20.20;88.70;;;;;;5121773;28;20028;-87
2021/08/26 11:42:17;;;;;;;5.65;1.85;;;20.30;89.20;;;;;;5103239;28;20044;-86
2021/08/26 11:44:43;;;;;;;3.70;1.50;;;20.30;89.40;;;;;;5098182;28;20063;-88
2021/08/26 11:47:09;;;;;;;4.78;1.85;;;20.30;89.10;;;;;;5096568;28;20047;-88
2021/08/26 11:49:41;;;;;;;4.25;1.73;;;20.40;90.00;;;;;;5081187;28;20051;-89
2021/08/26 11:52:15;;;;;;;5.70;1.40;;;20.40;88.40;;;;;;5096572;28;20036;-89
2021/08/26 11:54:46;;;;;;;4.85;1.40;;;20.40;86.40;;;;;;5101976;28;20330;-87
2021/08/26 11:57:14;;;;;;;4.90;1.30;;;20.60;87.20;;;;;;5099859;28;20043;-89
2021/08/26 11:59:42;;;;;;;4.10;1.40;;;20.70;86.30;;;;;;5100130;28;20042;-89
2021/08/26 12:02:25;;;;;;;5.45;1.50;;;20.90;85.10;;;;;;5112009;28;20036;-90
2021/08/26 12:04:56;;;;;;;4.03;1.02;;;21.00;84.00;;;;;;5108085;28;20103;-90
2021/08/26 12:07:21;;;;;;;4.05;0.80;;;21.10;80.50;;;;;;5122040;28;20044;-90
2021/08/26 12:09:47;;;;;;;2.78;0.70;;;21.20;79.90;;;;;;5104862;28;20096;-90
2021/08/26 12:12:14;;;;;;;1.23;0.70;;;21.20;79.10;;;;;;5114054;28;20038;-88
2021/08/26 12:14:40;;;;;;;4.18;0.70;;;21.10;79.40;;;;;;5114283;28;20052;-89
2021/08/26 12:17:24;;;;;;;1.73;0.60;;;21.10;80.70;;;;;;5102613;28;20066;-89
2021/08/26 12:19:52;;;;;;;3.13;0.73;;;21.30;81.00;;;;;;5114501;28;20429;-85
2021/08/26 12:22:21;;;;;;;3.38;0.90;;;21.30;78.30;;;;;;5107200;28;20354;-86
2021/08/26 12:25:00;;;;;;;1.35;0.80;;;21.20;79.30;;;;;;5104055;28;20040;-88
2021/08/26 12:27:30;;;;;;;3.05;1.17;;;21.00;80.90;;;;;;5096560;28;20454;-86
2021/08/26 12:29:57;;;;;;;1.35;0.70;;;20.90;81.30;;;;;;5113796;28;20040;-87
2021/08/26 12:32:25;;;;;;;5.90;1.10;;;20.90;82.30;;;;;;5120817;28;20044;-87
2021/08/26 12:34:51;;;;;;;2.65;1.08;;;20.90;80.90;;;;;;5117638;28;20067;-89
2021/08/26 12:37:16;;;;;;;4.72;1.40;;;20.70;82.30;;;;;;5111367;28;20035;-88
2021/08/26 12:39:43;;;;;;;3.13;0.70;;;20.60;82.00;;;;;;5126838;28;20042;-87
2021/08/26 12:42:16;;;;;;;3.25;0.90;;;20.40;83.10;;;;;;5116753;28;20035;-87
2021/08/26 12:44:42;;;;;;;7.47;1.33;;;20.20;82.90;;;;;;5109549;28;20046;-86
2021/08/26 12:47:08;;;;;;;1.92;1.00;;;19.80;91.40;;;;;;5112539;28;20043;-84
2021/08/26 12:49:41;;;;;;;4.90;1.20;;;19.20;91.70;;;;;;5116968;28;20065;-85
2021/08/26 12:52:06;;;;;;;4.07;1.77;;;18.50;93.30;;;;;;5118375;28;20159;-85